sensor_id;sensor_type;location;lat;lon;timestamp;pressure;altitude;pressure_sealevel;temperature;humidity
11343;BME280;5726;42.160;24.746;2023-04-04T00:00:07;98248.22;;;11.34;100.00
11343;BME280;5726;42.160;24.746;2023-04-04T00:02:33;98251.47;;;11.19;100.00
11343;BME280;5726;42.160;24.746;2023-04-04T00:04:58;98239.59;;;11.28;100.00
11343;BME280;5726;42.160;24.746;2023-04-04T00:07:24;98231.38;;;11.25;100.00
11343;BME280;5726;42.160;24.746;2023-04-04T00:09:50;98239.59;;;11.28;100.00
11343;BME280;5726;42.160;24.746;2023-04-04T00:12:16;98230.31;;;11.17;100.00
11343;BME280;5726;42.160;24.746;2023-04-04T00:14:42;98209.44;;;11.31;100.00
11343;BME280;5726;42.160;24.746;2023-04-04T00:17:07;98219.53;;;11.34;100.00
11343;BME280;5726;42.160;24.746;2023-04-04T00:19:32;98219.44;;;11.22;100.00
11343;BME280;5726;42.160;24.746;2023-04-04T00:21:58;98220.34;;;11.26;100.00
11343;BME280;5726;42.160;24.746;2023-04-04T00:24:24;98212.13;;;11.31;100.00
11343;BME280;5726;42.160;24.746;2023-04-04T00:26:49;98192.38;;;11.36;100.00
11343;BME280;5726;42.160;24.746;2023-04-04T00:29:15;98196.16;;;11.35;100.00
11343;BME280;5726;42.160;24.746;2023-04-04T00:31:41;98185.78;;;11.25;100.00
11343;BME280;5726;42.160;24.746;2023-04-04T00:34:07;98202.78;;;11.37;100.00
11343;BME280;5726;42.160;24.746;2023-04-04T00:36:33;98186.47;;;11.42;100.00
11343;BME280;5726;42.160;24.746;2023-04-04T00:38:58;98188.88;;;11.35;100.00
11343;BME280;5726;42.160;24.746;2023-04-04T00:41:23;98191.56;;;11.35;100.00
11343;BME280;5726;42.160;24.746;2023-04-04T00:43:49;98225.66;;;11.35;100.00
11343;BME280;5726;42.160;24.746;2023-04-04T00:46:15;98206.81;;;11.14;100.00
11343;BME280;5726;42.160;24.746;2023-04-04T00:48:43;98189.44;;;11.20;100.00
11343;BME280;5726;42.160;24.746;2023-04-04T00:51:08;98188.53;;;11.16;100.00
11343;BME280;5726;42.160;24.746;2023-04-04T00:53:34;98192.03;;;11.37;100.00
11343;BME280;5726;42.160;24.746;2023-04-04T00:56:01;98175.63;;;11.39;100.00
11343;BME280;5726;42.160;24.746;2023-04-04T00:58:28;98181.63;;;11.36;100.00
11343;BME280;5726;42.160;24.746;2023-04-04T01:00:54;98187.97;;;11.31;100.00
11343;BME280;5726;42.160;24.746;2023-04-04T01:03:19;98184.91;;;11.41;100.00
11343;BME280;5726;42.160;24.746;2023-04-04T01:05:45;98184.25;;;11.44;100.00
11343;BME280;5726;42.160;24.746;2023-04-04T01:08:11;98179.41;;;11.38;100.00
11343;BME280;5726;42.160;24.746;2023-04-04T01:10:36;98178.44;;;11.42;100.00
11343;BME280;5726;42.160;24.746;2023-04-04T01:13:03;98179.28;;;11.34;100.00
11343;BME280;5726;42.160;24.746;2023-04-04T01:15:29;98169.44;;;11.38;100.00
11343;BME280;5726;42.160;24.746;2023-04-04T01:18:00;98168.91;;;11.24;100.00
11343;BME280;5726;42.160;24.746;2023-04-04T01:20:28;98166.03;;;11.29;100.00
11343;BME280;5726;42.160;24.746;2023-04-04T01:22:55;98201.56;;;11.26;100.00
11343;BME280;5726;42.160;24.746;2023-04-04T01:25:28;98171.91;;;11.23;100.00
11343;BME280;5726;42.160;24.746;2023-04-04T01:27:56;98165.28;;;11.20;100.00
11343;BME280;5726;42.160;24.746;2023-04-04T01:30:22;98157.22;;;11.29;100.00
11343;BME280;5726;42.160;24.746;2023-04-04T01:33:00;98150.97;;;11.37;100.00
11343;BME280;5726;42.160;24.746;2023-04-04T01:36:05;98164.28;;;11.33;100.00
11343;BME280;5726;42.160;24.746;2023-04-04T01:41:07;98161.72;;;11.37;100.00
11343;BME280;5726;42.160;24.746;2023-04-04T01:43:33;98154.19;;;11.30;100.00
11343;BME280;5726;42.160;24.746;2023-04-04T01:45:59;98161.06;;;11.40;100.00
11343;BME280;5726;42.160;24.746;2023-04-04T01:48:25;98161.22;;;11.43;100.00
11343;BME280;5726;42.160;24.746;2023-04-04T01:50:51;98154.19;;;11.30;100.00
11343;BME280;5726;42.160;24.746;2023-04-04T01:53:16;98151.47;;;11.39;100.00
11343;BME280;5726;42.160;24.746;2023-04-04T01:55:42;98139.06;;;11.26;100.00
11343;BME280;5726;42.160;24.746;2023-04-04T01:58:08;98146.78;;;11.27;100.00
11343;BME280;5726;42.160;24.746;2023-04-04T02:00:33;98154.63;;;11.12;100.00
11343;BME280;5726;42.160;24.746;2023-04-04T02:02:59;98170.00;;;11.23;100.00
11343;BME280;5726;42.160;24.746;2023-04-04T02:05:25;98138.28;;;11.25;100.00
11343;BME280;5726;42.160;24.746;2023-04-04T02:07:51;98147.91;;;11.26;100.00
11343;BME280;5726;42.160;24.746;2023-04-04T02:10:17;98143.84;;;11.20;100.00
11343;BME280;5726;42.160;24.746;2023-04-04T02:12:42;98144.88;;;11.28;100.00
11343;BME280;5726;42.160;24.746;2023-04-04T02:15:08;98151.19;;;11.32;100.00
11343;BME280;5726;42.160;24.746;2023-04-04T02:17:34;98158.59;;;11.35;100.00
11343;BME280;5726;42.160;24.746;2023-04-04T02:20:00;98144.88;;;11.28;100.00
11343;BME280;5726;42.160;24.746;2023-04-04T02:22:26;98148.78;;;11.39;100.00
11343;BME280;5726;42.160;24.746;2023-04-04T02:24:51;98151.59;;;11.42;100.00
11343;BME280;5726;42.160;24.746;2023-04-04T02:27:18;98153.41;;;11.30;100.00
11343;BME280;5726;42.160;24.746;2023-04-04T02:29:44;98157.94;;;11.38;100.00
11343;BME280;5726;42.160;24.746;2023-04-04T02:32:09;98162.69;;;11.32;100.00
11343;BME280;5726;42.160;24.746;2023-04-04T02:34:34;98150.00;;;11.41;100.00
11343;BME280;5726;42.160;24.746;2023-04-04T02:37:00;98162.16;;;11.47;100.00
11343;BME280;5726;42.160;24.746;2023-04-04T02:39:26;98158.38;;;11.48;100.00
11343;BME280;5726;42.160;24.746;2023-04-04T02:41:52;98148.91;;;11.42;100.00
11343;BME280;5726;42.160;24.746;2023-04-04T02:44:17;98144.41;;;11.34;100.00
11343;BME280;5726;42.160;24.746;2023-04-04T02:46:43;98156.13;;;11.50;100.00
11343;BME280;5726;42.160;24.746;2023-04-04T02:49:08;98148.63;;;11.35;100.00
11343;BME280;5726;42.160;24.746;2023-04-04T02:51:33;98152.03;;;11.44;100.00
11343;BME280;5726;42.160;24.746;2023-04-04T02:53:59;98145.88;;;11.52;100.00
11343;BME280;5726;42.160;24.746;2023-04-04T02:56:25;98136.41;;;11.46;100.00
11343;BME280;5726;42.160;24.746;2023-04-04T02:58:50;98136.91;;;11.48;100.00
11343;BME280;5726;42.160;24.746;2023-04-04T03:01:16;98141.63;;;11.43;100.00
11343;BME280;5726;42.160;24.746;2023-04-04T03:03:42;98140.03;;;11.50;100.00
11343;BME280;5726;42.160;24.746;2023-04-04T03:06:07;98163.25;;;11.46;100.00
11343;BME280;5726;42.160;24.746;2023-04-04T03:08:33;98153.63;;;11.45;100.00
11343;BME280;5726;42.160;24.746;2023-04-04T03:11:00;98144.75;;;11.53;100.00
11343;BME280;5726;42.160;24.746;2023-04-04T03:13:25;98135.44;;;11.71;100.00
11343;BME280;5726;42.160;24.746;2023-04-04T03:15:58;98133.41;;;11.68;100.00
11343;BME280;5726;42.160;24.746;2023-04-04T03:18:24;98140.09;;;11.62;100.00
11343;BME280;5726;42.160;24.746;2023-04-04T03:20:49;98129.28;;;11.50;100.00
11343;BME280;5726;42.160;24.746;2023-04-04T03:23:15;98137.28;;;11.58;100.00
11343;BME280;5726;42.160;24.746;2023-04-04T03:25:40;98144.09;;;11.76;100.00
11343;BME280;5726;42.160;24.746;2023-04-04T03:28:07;98129.63;;;11.69;100.00
11343;BME280;5726;42.160;24.746;2023-04-04T03:30:34;98128.69;;;11.65;100.00
11343;BME280;5726;42.160;24.746;2023-04-04T03:33:03;98136.84;;;11.56;100.00
11343;BME280;5726;42.160;24.746;2023-04-04T03:35:29;98143.09;;;11.60;100.00
11343;BME280;5726;42.160;24.746;2023-04-04T03:37:54;98153.78;;;11.69;100.00
11343;BME280;5726;42.160;24.746;2023-04-04T03:40:20;98159.81;;;11.66;100.00
11343;BME280;5726;42.160;24.746;2023-04-04T03:42:45;98154.97;;;11.59;100.00
11343;BME280;5726;42.160;24.746;2023-04-04T03:45:11;98163.16;;;11.63;100.00
11343;BME280;5726;42.160;24.746;2023-04-04T03:47:37;98175.66;;;11.59;100.00
11343;BME280;5726;42.160;24.746;2023-04-04T03:50:03;98174.22;;;11.61;100.00
11343;BME280;5726;42.160;24.746;2023-04-04T03:52:28;98169.28;;;11.63;100.00
11343;BME280;5726;42.160;24.746;2023-04-04T03:54:54;98169.03;;;11.77;100.00
11343;BME280;5726;42.160;24.746;2023-04-04T03:57:19;98177.94;;;11.69;100.00
11343;BME280;5726;42.160;24.746;2023-04-04T03:59:45;98179.31;;;11.75;100.00
11343;BME280;5726;42.160;24.746;2023-04-04T04:02:10;98175.34;;;11.81;100.00
11343;BME280;5726;42.160;24.746;2023-04-04T04:04:36;98176.44;;;11.80;100.00
11343;BME280;5726;42.160;24.746;2023-04-04T04:07:01;98178.47;;;11.83;100.00
11343;BME280;5726;42.160;24.746;2023-04-04T04:09:26;98188.16;;;11.75;100.00
11343;BME280;5726;42.160;24.746;2023-04-04T04:11:52;98197.41;;;11.86;100.00
11343;BME280;5726;42.160;24.746;2023-04-04T04:14:17;98182.06;;;11.87;100.00
11343;BME280;5726;42.160;24.746;2023-04-04T04:16:43;98184.69;;;11.75;100.00
11343;BME280;5726;42.160;24.746;2023-04-04T04:19:08;98180.00;;;11.92;100.00
11343;BME280;5726;42.160;24.746;2023-04-04T04:21:33;98192.97;;;11.70;100.00
11343;BME280;5726;42.160;24.746;2023-04-04T04:23:59;98175.25;;;11.69;100.00
11343;BME280;5726;42.160;24.746;2023-04-04T04:26:24;98201.34;;;11.68;100.00
11343;BME280;5726;42.160;24.746;2023-04-04T04:28:50;98181.81;;;11.59;100.00
11343;BME280;5726;42.160;24.746;2023-04-04T04:31:16;98183.31;;;11.69;100.00
11343;BME280;5726;42.160;24.746;2023-04-04T04:33:41;98184.56;;;11.71;100.00
11343;BME280;5726;42.160;24.746;2023-04-04T04:36:06;98187.91;;;11.89;100.00
11343;BME280;5726;42.160;24.746;2023-04-04T04:38:32;98187.97;;;11.80;100.00
11343;BME280;5726;42.160;24.746;2023-04-04T04:40:59;98190.56;;;11.89;100.00
11343;BME280;5726;42.160;24.746;2023-04-04T04:43:25;98200.75;;;11.83;100.00
11343;BME280;5726;42.160;24.746;2023-04-04T04:45:51;98190.41;;;11.93;100.00
11343;BME280;5726;42.160;24.746;2023-04-04T04:48:17;98200.53;;;12.08;100.00
11343;BME280;5726;42.160;24.746;2023-04-04T04:50:44;98198.78;;;11.92;100.00
11343;BME280;5726;42.160;24.746;2023-04-04T04:53:10;98213.38;;;11.83;100.00
11343;BME280;5726;42.160;24.746;2023-04-04T04:55:35;98204.88;;;12.01;100.00
11343;BME280;5726;42.160;24.746;2023-04-04T04:58:01;98205.25;;;12.11;100.00
11343;BME280;5726;42.160;24.746;2023-04-04T05:00:28;98206.56;;;12.05;100.00
11343;BME280;5726;42.160;24.746;2023-04-04T05:02:54;98198.50;;;12.05;100.00
11343;BME280;5726;42.160;24.746;2023-04-04T05:05:20;98206.75;;;12.21;100.00
11343;BME280;5726;42.160;24.746;2023-04-04T05:07:46;98194.22;;;12.25;100.00
11343;BME280;5726;42.160;24.746;2023-04-04T05:10:11;98190.13;;;12.07;100.00
11343;BME280;5726;42.160;24.746;2023-04-04T05:12:41;98188.88;;;12.04;100.00
11343;BME280;5726;42.160;24.746;2023-04-04T05:15:09;98194.91;;;12.01;100.00
11343;BME280;5726;42.160;24.746;2023-04-04T05:17:44;98196.59;;;12.26;100.00
11343;BME280;5726;42.160;24.746;2023-04-04T05:20:10;98196.34;;;11.99;100.00
11343;BME280;5726;42.160;24.746;2023-04-04T05:22:43;98175.31;;;12.01;100.00
11343;BME280;5726;42.160;24.746;2023-04-04T05:25:09;98190.84;;;11.95;100.00
11343;BME280;5726;42.160;24.746;2023-04-04T05:27:35;98189.75;;;11.96;100.00
11343;BME280;5726;42.160;24.746;2023-04-04T05:30:00;98195.94;;;11.89;100.00
11343;BME280;5726;42.160;24.746;2023-04-04T05:32:26;98183.94;;;12.06;100.00
11343;BME280;5726;42.160;24.746;2023-04-04T05:34:51;98190.19;;;11.98;100.00
11343;BME280;5726;42.160;24.746;2023-04-04T05:37:17;98193.75;;;11.91;100.00
11343;BME280;5726;42.160;24.746;2023-04-04T05:39:43;98186.91;;;11.93;100.00
11343;BME280;5726;42.160;24.746;2023-04-04T05:42:09;98203.94;;;11.97;100.00
11343;BME280;5726;42.160;24.746;2023-04-04T05:44:35;98200.28;;;11.81;100.00
11343;BME280;5726;42.160;24.746;2023-04-04T05:47:02;98204.44;;;12.11;100.00
11343;BME280;5726;42.160;24.746;2023-04-04T05:49:27;98199.34;;;11.97;100.00
11343;BME280;5726;42.160;24.746;2023-04-04T05:51:54;98219.72;;;11.98;100.00
11343;BME280;5726;42.160;24.746;2023-04-04T05:54:21;98200.53;;;11.88;100.00
11343;BME280;5726;42.160;24.746;2023-04-04T05:56:47;98214.88;;;12.12;100.00
11343;BME280;5726;42.160;24.746;2023-04-04T05:59:12;98211.03;;;12.01;100.00
11343;BME280;5726;42.160;24.746;2023-04-04T06:01:38;98211.16;;;11.85;100.00
11343;BME280;5726;42.160;24.746;2023-04-04T06:04:05;98222.75;;;11.97;100.00
11343;BME280;5726;42.160;24.746;2023-04-04T06:06:32;98209.44;;;12.00;100.00
11343;BME280;5726;42.160;24.746;2023-04-04T06:09:16;98227.75;;;12.07;100.00
11343;BME280;5726;42.160;24.746;2023-04-04T06:11:41;98224.25;;;12.06;100.00
11343;BME280;5726;42.160;24.746;2023-04-04T06:14:07;98231.72;;;12.01;100.00
11343;BME280;5726;42.160;24.746;2023-04-04T06:16:34;98230.69;;;11.93;100.00
11343;BME280;5726;42.160;24.746;2023-04-04T06:19:23;98237.00;;;12.09;100.00
11343;BME280;5726;42.160;24.746;2023-04-04T06:21:49;98216.00;;;12.11;100.00
11343;BME280;5726;42.160;24.746;2023-04-04T06:24:14;98231.06;;;12.04;100.00
11343;BME280;5726;42.160;24.746;2023-04-04T06:26:39;98219.78;;;12.10;100.00
11343;BME280;5726;42.160;24.746;2023-04-04T06:29:06;98228.56;;;11.99;100.00
11343;BME280;5726;42.160;24.746;2023-04-04T06:31:32;98221.56;;;12.06;100.00
11343;BME280;5726;42.160;24.746;2023-04-04T06:33:57;98223.47;;;12.26;100.00
11343;BME280;5726;42.160;24.746;2023-04-04T06:36:25;98239.59;;;12.26;100.00
11343;BME280;5726;42.160;24.746;2023-04-04T06:38:52;98226.69;;;12.32;100.00
11343;BME280;5726;42.160;24.746;2023-04-04T06:41:21;98223.19;;;12.19;100.00
11343;BME280;5726;42.160;24.746;2023-04-04T06:43:47;98238.88;;;12.17;100.00
11343;BME280;5726;42.160;24.746;2023-04-04T06:46:12;98220.94;;;12.21;100.00
11343;BME280;5726;42.160;24.746;2023-04-04T06:48:39;98226.31;;;12.21;100.00
11343;BME280;5726;42.160;24.746;2023-04-04T06:51:05;98236.22;;;12.29;100.00
11343;BME280;5726;42.160;24.746;2023-04-04T06:53:33;98231.19;;;12.07;100.00
11343;BME280;5726;42.160;24.746;2023-04-04T06:55:59;98228.44;;;12.16;100.00
11343;BME280;5726;42.160;24.746;2023-04-04T06:58:25;98216.25;;;12.18;100.00
11343;BME280;5726;42.160;24.746;2023-04-04T07:00:50;98226.19;;;12.38;100.00
11343;BME280;5726;42.160;24.746;2023-04-04T07:03:40;98223.19;;;12.19;100.00
11343;BME280;5726;42.160;24.746;2023-04-04T07:07:03;98225.00;;;12.27;100.00
11343;BME280;5726;42.160;24.746;2023-04-04T07:09:29;98236.69;;;12.31;100.00
11343;BME280;5726;42.160;24.746;2023-04-04T07:11:55;98227.25;;;12.25;100.00
11343;BME280;5726;42.160;24.746;2023-04-04T07:14:20;98215.22;;;12.43;100.00
11343;BME280;5726;42.160;24.746;2023-04-04T07:16:49;98222.31;;;12.27;100.00
11343;BME280;5726;42.160;24.746;2023-04-04T07:19:16;98219.94;;;12.46;100.00
11343;BME280;5726;42.160;24.746;2023-04-04T07:21:42;98238.72;;;12.66;100.00
11343;BME280;5726;42.160;24.746;2023-04-04T07:24:07;98230.94;;;12.53;100.00
11343;BME280;5726;42.160;24.746;2023-04-04T07:26:35;98247.13;;;12.65;100.00
11343;BME280;5726;42.160;24.746;2023-04-04T07:29:00;98241.06;;;12.68;100.00
11343;BME280;5726;42.160;24.746;2023-04-04T07:31:26;98247.34;;;12.72;100.00
11343;BME280;5726;42.160;24.746;2023-04-04T07:33:59;98240.13;;;12.52;100.00
11343;BME280;5726;42.160;24.746;2023-04-04T07:36:24;98250.50;;;12.74;100.00
11343;BME280;5726;42.160;24.746;2023-04-04T07:38:50;98252.13;;;12.87;100.00
11343;BME280;5726;42.160;24.746;2023-04-04T07:41:16;98251.66;;;12.85;100.00
11343;BME280;5726;42.160;24.746;2023-04-04T07:43:42;98255.47;;;12.84;100.00
11343;BME280;5726;42.160;24.746;2023-04-04T07:46:08;98254.31;;;12.73;100.00
11343;BME280;5726;42.160;24.746;2023-04-04T07:48:33;98257.22;;;12.68;100.00
11343;BME280;5726;42.160;24.746;2023-04-04T07:51:02;98264.16;;;12.81;100.00
11343;BME280;5726;42.160;24.746;2023-04-04T07:53:28;98254.38;;;12.96;100.00
11343;BME280;5726;42.160;24.746;2023-04-04T07:55:54;98250.13;;;13.07;100.00
11343;BME280;5726;42.160;24.746;2023-04-04T07:58:19;98252.13;;;12.87;100.00
11343;BME280;5726;42.160;24.746;2023-04-04T08:00:47;98245.84;;;12.83;100.00
11343;BME280;5726;42.160;24.746;2023-04-04T08:03:12;98253.38;;;13.01;100.00
11343;BME280;5726;42.160;24.746;2023-04-04T08:05:40;98256.63;;;12.94;100.00
11343;BME280;5726;42.160;24.746;2023-04-04T08:08:05;98257.88;;;13.09;100.00
11343;BME280;5726;42.160;24.746;2023-04-04T08:10:31;98248.59;;;13.06;100.00
11343;BME280;5726;42.160;24.746;2023-04-04T08:12:56;98243.72;;;13.00;100.00
11343;BME280;5726;42.160;24.746;2023-04-04T08:15:23;98244.56;;;13.12;100.00
11343;BME280;5726;42.160;24.746;2023-04-04T08:17:48;98250.81;;;13.28;100.00
11343;BME280;5726;42.160;24.746;2023-04-04T08:20:14;98257.34;;;13.39;100.00
11343;BME280;5726;42.160;24.746;2023-04-04T08:22:41;98254.19;;;13.37;100.00
11343;BME280;5726;42.160;24.746;2023-04-04T08:25:08;98254.00;;;13.30;100.00
11343;BME280;5726;42.160;24.746;2023-04-04T08:27:35;98272.38;;;13.52;100.00
11343;BME280;5726;42.160;24.746;2023-04-04T08:30:03;98261.16;;;13.38;100.00
11343;BME280;5726;42.160;24.746;2023-04-04T08:32:29;98264.97;;;13.37;100.00
11343;BME280;5726;42.160;24.746;2023-04-04T08:34:54;98267.16;;;12.99;100.00
11343;BME280;5726;42.160;24.746;2023-04-04T08:37:20;98265.59;;;13.10;100.00
11343;BME280;5726;42.160;24.746;2023-04-04T08:39:45;98276.22;;;12.83;100.00
11343;BME280;5726;42.160;24.746;2023-04-04T08:42:11;98263.72;;;12.79;100.00
11343;BME280;5726;42.160;24.746;2023-04-04T08:44:41;98262.13;;;12.98;100.00
11343;BME280;5726;42.160;24.746;2023-04-04T08:47:09;98270.44;;;13.05;100.00
11343;BME280;5726;42.160;24.746;2023-04-04T08:49:37;98269.91;;;13.35;100.00
11343;BME280;5726;42.160;24.746;2023-04-04T08:52:03;98276.31;;;13.42;100.00
11343;BME280;5726;42.160;24.746;2023-04-04T08:54:30;98281.44;;;13.24;100.00
11343;BME280;5726;42.160;24.746;2023-04-04T08:56:58;98275.72;;;13.49;100.00
11343;BME280;5726;42.160;24.746;2023-04-04T08:59:24;98267.88;;;13.32;100.00
11343;BME280;5726;42.160;24.746;2023-04-04T09:01:55;98279.34;;;13.41;100.00
11343;BME280;5726;42.160;24.746;2023-04-04T09:04:24;98276.31;;;13.54;100.00
11343;BME280;5726;42.160;24.746;2023-04-04T09:06:50;98270.34;;;13.61;100.00
11343;BME280;5726;42.160;24.746;2023-04-04T09:09:16;98278.44;;;13.49;100.00
11343;BME280;5726;42.160;24.746;2023-04-04T09:11:43;98281.59;;;13.39;100.00
11343;BME280;5726;42.160;24.746;2023-04-04T09:14:10;98277.88;;;13.55;100.00
11343;BME280;5726;42.160;24.746;2023-04-04T09:16:36;98284.38;;;13.42;100.00
11343;BME280;5726;42.160;24.746;2023-04-04T09:19:01;98286.50;;;13.49;100.00
11343;BME280;5726;42.160;24.746;2023-04-04T09:21:27;98287.66;;;13.48;100.00
11343;BME280;5726;42.160;24.746;2023-04-04T09:24:00;98280.78;;;13.50;100.00
11343;BME280;5726;42.160;24.746;2023-04-04T09:26:26;98281.78;;;13.70;100.00
11343;BME280;5726;42.160;24.746;2023-04-04T09:28:52;98285.63;;;13.69;100.00
11343;BME280;5726;42.160;24.746;2023-04-04T09:31:17;98278.66;;;13.68;100.00
11343;BME280;5726;42.160;24.746;2023-04-04T09:33:43;98281.34;;;13.56;100.00
11343;BME280;5726;42.160;24.746;2023-04-04T09:36:11;98292.22;;;13.47;100.00
11343;BME280;5726;42.160;24.746;2023-04-04T09:38:41;98280.91;;;13.54;100.00
11343;BME280;5726;42.160;24.746;2023-04-04T09:41:13;98289.09;;;13.69;100.00
11343;BME280;5726;42.160;24.746;2023-04-04T09:43:38;98292.56;;;13.82;100.00
11343;BME280;5726;42.160;24.746;2023-04-04T09:46:05;98294.56;;;13.96;100.00
11343;BME280;5726;42.160;24.746;2023-04-04T09:48:32;98299.53;;;13.83;100.00
11343;BME280;5726;42.160;24.746;2023-04-04T09:50:59;98285.81;;;13.87;100.00
11343;BME280;5726;42.160;24.746;2023-04-04T09:53:25;98296.91;;;13.98;100.00
11343;BME280;5726;42.160;24.746;2023-04-04T09:55:52;98282.69;;;14.09;100.00
11343;BME280;5726;42.160;24.746;2023-04-04T09:58:23;98284.34;;;14.02;100.00
11343;BME280;5726;42.160;24.746;2023-04-04T10:00:52;98296.81;;;13.94;100.00
11343;BME280;5726;42.160;24.746;2023-04-04T10:03:21;98283.44;;;14.10;100.00
11343;BME280;5726;42.160;24.746;2023-04-04T10:05:47;98280.53;;;14.15;100.00
11343;BME280;5726;42.160;24.746;2023-04-04T10:08:22;98281.56;;;14.10;100.00
11343;BME280;5726;42.160;24.746;2023-04-04T10:10:49;98279.66;;;14.38;100.00
11343;BME280;5726;42.160;24.746;2023-04-04T10:13:34;98274.47;;;14.45;100.00
11343;BME280;5726;42.160;24.746;2023-04-04T10:16:01;98281.63;;;14.26;100.00
11343;BME280;5726;42.160;24.746;2023-04-04T10:18:32;98277.44;;;14.40;100.00
11343;BME280;5726;42.160;24.746;2023-04-04T10:21:01;98283.69;;;14.44;100.00
11343;BME280;5726;42.160;24.746;2023-04-04T10:23:27;98279.28;;;14.51;100.00
11343;BME280;5726;42.160;24.746;2023-04-04T10:25:54;98282.91;;;14.43;100.00
11343;BME280;5726;42.160;24.746;2023-04-04T10:28:20;98275.97;;;14.70;100.00
11343;BME280;5726;42.160;24.746;2023-04-04T10:33:31;98273.28;;;14.85;100.00
11343;BME280;5726;42.160;24.746;2023-04-04T10:36:02;98255.72;;;14.91;100.00
11343;BME280;5726;42.160;24.746;2023-04-04T10:38:38;98266.09;;;15.04;100.00
11343;BME280;5726;42.160;24.746;2023-04-04T10:41:06;98260.00;;;15.07;100.00
11343;BME280;5726;42.160;24.746;2023-04-04T10:43:33;98253.97;;;15.14;100.00
11343;BME280;5726;42.160;24.746;2023-04-04T10:46:07;98254.63;;;15.38;100.00
11343;BME280;5726;42.160;24.746;2023-04-04T10:48:32;98257.06;;;15.92;100.00
11343;BME280;5726;42.160;24.746;2023-04-04T10:50:58;98255.59;;;15.95;100.00
11343;BME280;5726;42.160;24.746;2023-04-04T10:53:25;98255.25;;;15.96;100.00
11343;BME280;5726;42.160;24.746;2023-04-04T10:55:51;98255.00;;;15.86;100.00
11343;BME280;5726;42.160;24.746;2023-04-04T10:58:17;98249.72;;;16.08;100.00
11343;BME280;5726;42.160;24.746;2023-04-04T11:00:54;98241.06;;;16.37;100.00
11343;BME280;5726;42.160;24.746;2023-04-04T11:03:20;98236.53;;;16.41;100.00
11343;BME280;5726;42.160;24.746;2023-04-04T11:05:45;98240.34;;;16.40;100.00
11343;BME280;5726;42.160;24.746;2023-04-04T11:08:20;98239.13;;;16.56;100.00
11343;BME280;5726;42.160;24.746;2023-04-04T11:10:48;98241.19;;;16.63;100.00
11343;BME280;5726;42.160;24.746;2023-04-04T11:13:18;98239.84;;;16.53;100.00
11343;BME280;5726;42.160;24.746;2023-04-04T11:16:25;98242.53;;;16.72;100.00
11343;BME280;5726;42.160;24.746;2023-04-04T11:18:50;98248.53;;;16.81;100.00
11343;BME280;5726;42.160;24.746;2023-04-04T11:21:20;98240.63;;;16.54;100.00
11343;BME280;5726;42.160;24.746;2023-04-04T11:28:55;98250.41;;;16.99;100.00
11343;BME280;5726;42.160;24.746;2023-04-04T11:31:23;98238.66;;;16.92;100.00
11343;BME280;5726;42.160;24.746;2023-04-04T11:34:28;98244.25;;;17.21;100.00
11343;BME280;5726;42.160;24.746;2023-04-04T11:36:54;98239.38;;;17.30;100.00
11343;BME280;5726;42.160;24.746;2023-04-04T11:39:21;98233.81;;;17.23;100.00
11343;BME280;5726;42.160;24.746;2023-04-04T11:44:22;98236.63;;;17.08;100.00
11343;BME280;5726;42.160;24.746;2023-04-04T11:46:54;98235.59;;;17.16;100.00
11343;BME280;5726;42.160;24.746;2023-04-04T11:49:27;98236.38;;;17.16;100.00
11343;BME280;5726;42.160;24.746;2023-04-04T11:51:57;98241.72;;;16.90;100.00
11343;BME280;5726;42.160;24.746;2023-04-04T11:54:22;98242.13;;;16.92;100.00
11343;BME280;5726;42.160;24.746;2023-04-04T11:56:48;98238.00;;;16.98;100.00
11343;BME280;5726;42.160;24.746;2023-04-04T11:59:19;98242.44;;;16.87;100.00
11343;BME280;5726;42.160;24.746;2023-04-04T12:01:44;98240.50;;;16.88;100.00
11343;BME280;5726;42.160;24.746;2023-04-04T12:04:10;98236.31;;;16.90;100.00
11343;BME280;5726;42.160;24.746;2023-04-04T12:06:37;98243.16;;;16.84;100.00
11343;BME280;5726;42.160;24.746;2023-04-04T12:09:04;98237.84;;;16.69;100.00
11343;BME280;5726;42.160;24.746;2023-04-04T12:11:33;98239.69;;;16.84;100.00
11343;BME280;5726;42.160;24.746;2023-04-04T12:13:59;98246.53;;;16.78;100.00
11343;BME280;5726;42.160;24.746;2023-04-04T12:16:25;98239.50;;;16.55;100.00
11343;BME280;5726;42.160;24.746;2023-04-04T12:18:51;98242.09;;;16.70;100.00
11343;BME280;5726;42.160;24.746;2023-04-04T12:21:18;98229.66;;;16.66;100.00
11343;BME280;5726;42.160;24.746;2023-04-04T12:23:43;98232.50;;;16.54;100.00
11343;BME280;5726;42.160;24.746;2023-04-04T12:26:09;98230.59;;;16.95;100.00
11343;BME280;5726;42.160;24.746;2023-04-04T12:28:35;98238.41;;;16.78;100.00
11343;BME280;5726;42.160;24.746;2023-04-04T12:31:06;98231.88;;;16.60;100.00
11343;BME280;5726;42.160;24.746;2023-04-04T12:33:32;98234.72;;;16.29;100.00
11343;BME280;5726;42.160;24.746;2023-04-04T12:35:58;98238.22;;;16.49;100.00
11343;BME280;5726;42.160;24.746;2023-04-04T12:38:24;98233.56;;;16.49;100.00
11343;BME280;5726;42.160;24.746;2023-04-04T12:40:51;98230.66;;;16.39;100.00
11343;BME280;5726;42.160;24.746;2023-04-04T12:43:16;98239.72;;;16.12;100.00
11343;BME280;5726;42.160;24.746;2023-04-04T12:45:42;98232.91;;;15.99;100.00
11343;BME280;5726;42.160;24.746;2023-04-04T12:48:13;98236.38;;;15.66;100.00
11343;BME280;5726;42.160;24.746;2023-04-04T12:50:49;98246.38;;;14.88;100.00
11343;BME280;5726;42.160;24.746;2023-04-04T12:53:15;98247.47;;;14.57;100.00
11343;BME280;5726;42.160;24.746;2023-04-04T12:55:45;98242.22;;;14.48;100.00
11343;BME280;5726;42.160;24.746;2023-04-04T12:58:14;98243.28;;;14.32;100.00
11343;BME280;5726;42.160;24.746;2023-04-04T13:00:40;98263.00;;;14.48;100.00
11343;BME280;5726;42.160;24.746;2023-04-04T13:03:06;98283.59;;;14.68;100.00